createdAt,value
2023-05-20T00:00:57.742Z,25.72
2023-05-20T00:03:30.794Z,26.48
2023-05-20T00:06:03.949Z,23.05
2023-05-20T00:08:36.852Z,28.75
2023-05-20T00:11:10.564Z,28.50
2023-05-20T00:13:43.855Z,23.27
2023-05-20T00:16:16.887Z,23.60
2023-05-20T00:18:49.761Z,23.22
2023-05-20T00:21:22.537Z,25.48
2023-05-20T00:23:55.570Z,21.27
2023-05-20T00:26:30.192Z,24.85
2023-05-20T00:29:03.962Z,26.85
2023-05-20T00:31:36.930Z,25.75
2023-05-20T00:34:11.244Z,22.32
2023-05-20T00:36:44.160Z,24.50
2023-05-20T00:39:17.098Z,23.77
2023-05-20T00:41:50.405Z,23.07
2023-05-20T00:44:24.946Z,22.07
2023-05-20T00:46:58.509Z,29.92
2023-05-20T00:49:31.633Z,28.30
2023-05-20T00:52:04.531Z,28.92
2023-05-20T00:54:38.416Z,23.83
2023-05-20T00:57:12.322Z,25.65
2023-05-20T00:59:45.442Z,33.20
2023-05-20T01:02:18.656Z,26.75
2023-05-20T01:04:51.693Z,22.77
2023-05-20T01:07:26.326Z,23.07
2023-05-20T01:09:59.827Z,29.75
2023-05-20T01:12:46.144Z,25.02
2023-05-20T01:15:19.581Z,25.72
2023-05-20T01:17:58.303Z,30.02
2023-05-20T01:20:33.501Z,23.62
2023-05-20T01:23:06.454Z,23.12
2023-05-20T01:25:39.219Z,29.50
2023-05-20T01:28:13.839Z,24.70
2023-05-20T01:30:51.383Z,24.50
2023-05-20T01:33:24.997Z,31.90
2023-05-20T01:35:59.569Z,27.95
2023-05-20T01:38:33.568Z,25.72
2023-05-20T01:41:07.948Z,25.90
2023-05-20T01:43:41.798Z,26.00
2023-05-20T01:46:16.575Z,24.02
2023-05-20T01:48:49.483Z,22.82
2023-05-20T01:51:22.793Z,24.90
2023-05-20T01:53:55.808Z,28.38
2023-05-20T01:56:29.781Z,24.25
2023-05-20T01:59:05.135Z,25.92
2023-05-20T02:01:38.044Z,22.33
2023-05-20T02:04:11.100Z,25.15
2023-05-20T02:06:44.220Z,30.32
2023-05-20T02:09:17.134Z,28.12
2023-05-20T02:11:50.092Z,23.47
2023-05-20T02:14:23.026Z,22.85
2023-05-20T02:16:56.344Z,27.95
2023-05-20T02:19:29.241Z,27.82
2023-05-20T02:22:03.280Z,26.17
2023-05-20T02:24:36.580Z,24.60
2023-05-20T02:27:09.444Z,19.50
2023-05-20T02:29:44.783Z,27.98
2023-05-20T02:32:17.557Z,22.98
2023-05-20T02:34:50.371Z,23.90
2023-05-20T02:37:23.615Z,24.82
2023-05-20T02:39:56.573Z,30.20
2023-05-20T02:42:29.506Z,22.30
2023-05-20T02:45:02.360Z,20.40
2023-05-20T02:47:35.719Z,23.10
2023-05-20T02:50:10.506Z,22.05
2023-05-20T02:52:43.629Z,23.60
2023-05-20T02:55:17.471Z,20.47
2023-05-20T02:57:50.351Z,24.55
2023-05-20T03:00:23.954Z,18.10
2023-05-20T03:02:57.011Z,26.45
2023-05-20T03:05:30.170Z,18.98
2023-05-20T03:08:03.177Z,19.95
2023-05-20T03:10:36.822Z,18.05
2023-05-20T03:13:12.865Z,19.98
2023-05-20T03:15:45.932Z,17.45
2023-05-20T03:18:19.690Z,31.93
2023-05-20T03:20:52.633Z,26.70
2023-05-20T03:23:25.728Z,27.48
2023-05-20T03:25:59.016Z,20.60
2023-05-20T03:28:33.250Z,20.15
2023-05-20T03:31:06.903Z,19.75
2023-05-20T03:33:40.495Z,19.17
2023-05-20T03:36:14.103Z,18.57
2023-05-20T03:38:47.168Z,21.33
2023-05-20T03:41:20.099Z,23.20
2023-05-20T03:43:53.557Z,19.65
2023-05-20T03:46:26.509Z,17.37
2023-05-20T03:48:59.511Z,22.58
2023-05-20T03:51:32.762Z,15.53
2023-05-20T03:54:07.304Z,19.90
2023-05-20T03:56:40.333Z,19.15
2023-05-20T03:59:13.442Z,19.85
2023-05-20T04:01:46.713Z,16.00
2023-05-20T04:04:19.720Z,17.73
2023-05-20T04:06:52.958Z,14.87
2023-05-20T04:09:25.962Z,22.37
2023-05-20T04:11:58.787Z,21.45
2023-05-20T04:14:33.773Z,19.27
2023-05-20T04:17:06.818Z,18.37
2023-05-20T04:19:39.627Z,17.57
2023-05-20T04:22:12.675Z,20.57
2023-05-20T04:24:46.401Z,16.57
2023-05-20T04:27:20.636Z,15.00
2023-05-20T04:29:55.370Z,19.42
2023-05-20T04:32:28.206Z,19.57
2023-05-20T04:35:02.608Z,15.08
2023-05-20T04:37:37.735Z,22.45
2023-05-20T04:40:12.846Z,18.50
2023-05-20T04:42:46.243Z,16.17
2023-05-20T04:47:53.620Z,15.68
2023-05-20T04:50:26.518Z,16.93
2023-05-20T04:52:59.948Z,18.00
2023-05-20T04:55:33.500Z,13.60
2023-05-20T04:58:08.683Z,17.10
2023-05-20T05:00:42.638Z,15.53
2023-05-20T05:03:15.973Z,13.32
2023-05-20T05:05:48.989Z,15.98
2023-05-20T05:08:21.924Z,15.32
2023-05-20T05:10:56.346Z,17.87
2023-05-20T05:13:29.412Z,19.17
2023-05-20T05:16:06.784Z,14.47
2023-05-20T05:18:40.230Z,18.92
2023-05-20T05:21:13.986Z,11.38
2023-05-20T05:23:47.469Z,17.17
2023-05-20T05:26:20.370Z,16.07
2023-05-20T05:28:54.419Z,13.08
2023-05-20T05:31:28.484Z,16.37
2023-05-20T05:34:01.773Z,17.85
2023-05-20T05:36:36.373Z,18.32
2023-05-20T05:39:09.237Z,12.43
2023-05-20T05:41:42.964Z,11.85
2023-05-20T05:44:15.921Z,14.40
2023-05-20T05:46:49.291Z,16.23
2023-05-20T05:49:22.343Z,16.87
2023-05-20T05:51:55.631Z,17.35
2023-05-20T05:54:29.380Z,15.95
2023-05-20T05:57:02.590Z,13.15
2023-05-20T05:59:37.285Z,15.08
2023-05-20T06:02:11.206Z,11.53
2023-05-20T06:04:44.533Z,20.60
2023-05-20T06:07:17.449Z,38.05
2023-05-20T06:09:50.389Z,25.02
2023-05-20T06:12:23.424Z,14.40
2023-05-20T06:14:56.661Z,15.40
2023-05-20T06:17:29.675Z,18.90
2023-05-20T06:20:02.686Z,17.82
2023-05-20T06:22:36.096Z,23.00
2023-05-20T06:25:11.040Z,19.50
2023-05-20T06:27:44.112Z,17.77
2023-05-20T06:30:18.706Z,21.97
2023-05-20T06:35:26.095Z,16.17
2023-05-20T06:37:59.233Z,10.18
2023-05-20T06:40:32.499Z,12.30
2023-05-20T06:43:05.632Z,13.05
2023-05-20T06:45:56.775Z,14.15
2023-05-20T06:48:31.456Z,17.37
2023-05-20T06:51:07.343Z,16.87
2023-05-20T06:53:40.425Z,13.43
2023-05-20T06:56:13.663Z,14.93
2023-05-20T06:58:46.631Z,17.02
2023-05-20T07:03:52.681Z,20.75
2023-05-20T07:06:26.251Z,16.65
2023-05-20T07:08:59.217Z,10.98
2023-05-20T07:11:33.031Z,10.32
2023-05-20T07:14:06.026Z,8.08
2023-05-20T07:16:39.276Z,9.40
2023-05-20T07:19:12.724Z,12.60
2023-05-20T07:21:45.763Z,14.93
2023-05-20T07:24:19.976Z,15.35
2023-05-20T07:26:53.131Z,9.73
2023-05-20T07:29:26.294Z,10.63
2023-05-20T07:31:59.321Z,11.43
2023-05-20T07:34:32.656Z,11.70
2023-05-20T07:37:06.437Z,11.87
2023-05-20T07:39:39.602Z,12.30
2023-05-20T07:42:12.933Z,11.33
2023-05-20T07:44:47.690Z,13.08
2023-05-20T07:47:20.432Z,9.05
2023-05-20T07:49:53.768Z,12.05
2023-05-20T07:52:26.732Z,12.98
2023-05-20T07:55:00.282Z,20.65
2023-05-20T07:57:33.564Z,8.35
2023-05-20T08:00:07.282Z,23.47
2023-05-20T08:02:42.164Z,23.60
2023-05-20T08:05:15.660Z,15.85
2023-05-20T08:07:49.192Z,14.38
2023-05-20T08:10:22.822Z,13.38
2023-05-20T08:12:56.664Z,14.50
2023-05-20T08:15:29.744Z,12.70
2023-05-20T08:18:02.691Z,34.70
2023-05-20T08:20:36.861Z,17.10
2023-05-20T08:23:10.117Z,23.05
2023-05-20T08:25:46.178Z,19.60
2023-05-20T08:28:19.748Z,11.20
2023-05-20T08:30:53.572Z,14.35
2023-05-20T08:33:26.938Z,10.13
2023-05-20T08:35:59.710Z,14.25
2023-05-20T08:38:33.681Z,13.43
2023-05-20T08:41:06.556Z,17.10
2023-05-20T08:43:40.312Z,30.08
2023-05-20T08:46:14.003Z,19.37
2023-05-20T08:48:48.226Z,11.05
2023-05-20T08:51:24.069Z,15.75
2023-05-20T08:53:57.038Z,13.90
2023-05-20T08:56:31.122Z,14.80
2023-05-20T08:59:05.703Z,12.23
2023-05-20T09:01:44.676Z,13.72
2023-05-20T09:04:17.930Z,10.80
2023-05-20T09:06:52.557Z,9.77
2023-05-20T09:09:25.392Z,12.60
2023-05-20T09:11:58.707Z,13.53
2023-05-20T09:14:32.680Z,12.37
2023-05-20T09:17:08.648Z,13.35
2023-05-20T09:19:42.258Z,17.98
2023-05-20T09:22:15.241Z,15.72
2023-05-20T09:24:50.080Z,15.45
2023-05-20T09:27:25.134Z,15.72
2023-05-20T09:29:57.908Z,19.98
2023-05-20T09:32:31.247Z,14.33
2023-05-20T09:35:05.726Z,13.43
2023-05-20T09:37:39.446Z,11.15
2023-05-20T09:40:15.567Z,15.05
2023-05-20T09:43:04.091Z,10.78
2023-05-20T09:45:37.692Z,6.75
2023-05-20T09:50:44.404Z,12.03
2023-05-20T09:53:17.280Z,9.43
2023-05-20T09:55:50.549Z,19.73
2023-05-20T09:58:25.611Z,11.65
2023-05-20T10:00:58.867Z,8.13
2023-05-20T10:03:33.749Z,5.83
2023-05-20T10:06:20.531Z,8.95
2023-05-20T10:09:27.938Z,10.03
2023-05-20T10:12:17.670Z,8.68
2023-05-20T10:15:04.546Z,9.70
2023-05-20T10:17:57.419Z,8.93
2023-05-20T10:20:30.357Z,11.45
2023-05-20T10:23:03.264Z,9.20
2023-05-20T10:25:36.806Z,7.65
2023-05-20T10:28:13.322Z,11.80
2023-05-20T10:30:51.886Z,13.78
2023-05-20T10:33:24.929Z,12.70
2023-05-20T10:36:02.953Z,13.00
2023-05-20T10:38:36.976Z,16.25
2023-05-20T10:41:13.256Z,20.08
2023-05-20T10:43:46.140Z,18.05
2023-05-20T10:46:35.006Z,22.17
2023-05-20T10:48:56.870Z,19.95
2023-05-20T10:51:33.324Z,23.85
2023-05-20T10:54:06.128Z,32.25
2023-05-20T10:56:39.282Z,20.00
2023-05-20T10:59:12.522Z,14.53
2023-05-20T11:01:45.425Z,9.70
2023-05-20T11:04:19.883Z,13.25
2023-05-20T11:06:57.532Z,16.70
2023-05-20T11:09:32.165Z,10.13
2023-05-20T11:12:05.625Z,7.90
2023-05-20T11:14:38.976Z,7.08
2023-05-20T11:17:12.586Z,6.20
2023-05-20T11:19:46.009Z,12.13
2023-05-20T11:22:19.356Z,12.90
2023-05-20T11:24:52.586Z,11.57
2023-05-20T11:27:25.627Z,9.05
2023-05-20T11:29:58.689Z,9.10
2023-05-20T11:32:31.914Z,12.30
2023-05-20T11:35:05.121Z,8.60
2023-05-20T11:37:38.914Z,12.47
2023-05-20T11:40:14.093Z,16.35
2023-05-20T11:42:47.768Z,11.48
2023-05-20T11:45:20.612Z,10.15
2023-05-20T11:48:05.209Z,10.82
2023-05-20T11:50:45.851Z,8.40
2023-05-20T11:53:24.323Z,8.38
2023-05-20T11:56:01.426Z,10.32
2023-05-20T11:58:34.787Z,14.35
2023-05-20T12:01:21.016Z,13.50
2023-05-20T12:03:42.925Z,12.75
2023-05-20T12:06:16.188Z,12.58
2023-05-20T12:08:49.452Z,8.68
2023-05-20T12:11:22.714Z,10.15
2023-05-20T12:13:55.675Z,10.43
2023-05-20T12:16:29.229Z,14.23
2023-05-20T12:19:02.359Z,11.20
2023-05-20T12:21:35.870Z,11.00
2023-05-20T12:24:09.691Z,11.30
2023-05-20T12:26:43.886Z,11.70
2023-05-20T12:29:16.727Z,9.10
2023-05-20T12:31:49.566Z,12.25
2023-05-20T12:34:22.555Z,17.17
2023-05-20T12:36:55.477Z,10.75
2023-05-20T12:39:28.370Z,9.08
2023-05-20T12:42:01.334Z,9.73
2023-05-20T12:44:34.769Z,13.60
2023-05-20T12:47:07.809Z,9.05
2023-05-20T12:49:40.772Z,10.23
2023-05-20T12:52:21.875Z,12.43
2023-05-20T12:54:48.354Z,10.65
2023-05-20T12:57:21.648Z,16.27
2023-05-20T12:59:54.642Z,8.23
2023-05-20T13:02:27.973Z,13.90
2023-05-20T13:05:00.976Z,16.60
2023-05-20T13:07:34.125Z,8.63
2023-05-20T13:10:10.736Z,9.40
2023-05-20T13:12:45.530Z,10.75
2023-05-20T13:15:18.417Z,7.72
2023-05-20T13:17:51.356Z,9.77
2023-05-20T13:20:24.384Z,9.95
2023-05-20T13:22:57.492Z,10.68
2023-05-20T13:25:32.184Z,7.87
2023-05-20T13:28:06.925Z,11.00
2023-05-20T13:30:40.020Z,10.72
2023-05-20T13:33:13.116Z,11.30
2023-05-20T13:35:46.050Z,12.37
2023-05-20T13:38:19.348Z,11.30
2023-05-20T13:40:52.320Z,11.83
2023-05-20T13:43:26.215Z,97.17
2023-05-20T13:45:59.225Z,83.67
2023-05-20T13:48:33.353Z,44.50
2023-05-20T13:51:06.507Z,64.53
2023-05-20T13:53:40.716Z,34.27
2023-05-20T13:56:13.623Z,22.67
2023-05-20T13:58:46.634Z,17.10
2023-05-20T14:01:19.652Z,10.72
2023-05-20T14:03:52.822Z,13.23
2023-05-20T14:06:26.133Z,9.28
2023-05-20T14:08:59.592Z,7.23
2023-05-20T14:11:32.773Z,11.33
2023-05-20T14:14:06.133Z,12.33
2023-05-20T14:16:40.122Z,11.00
2023-05-20T14:19:13.028Z,11.10
2023-05-20T14:21:45.813Z,15.08
2023-05-20T14:24:18.621Z,11.18
2023-05-20T14:26:51.681Z,8.50
2023-05-20T14:29:24.752Z,10.93
2023-05-20T14:31:57.720Z,11.38
2023-05-20T14:34:30.910Z,16.13
2023-05-20T14:37:05.644Z,13.85
2023-05-20T14:39:39.234Z,9.80
2023-05-20T14:42:12.765Z,9.85
2023-05-20T14:44:46.205Z,11.48
2023-05-20T14:47:21.895Z,8.25
2023-05-20T14:49:54.735Z,13.15
2023-05-20T14:52:27.648Z,12.78
2023-05-20T14:55:00.913Z,15.40
2023-05-20T14:57:34.179Z,16.45
2023-05-20T15:00:09.080Z,11.45
2023-05-20T15:02:42.628Z,11.40
2023-05-20T15:05:16.033Z,11.85
2023-05-20T15:07:48.942Z,6.47
2023-05-20T15:10:22.297Z,10.05
2023-05-20T15:12:55.570Z,8.48
2023-05-20T15:15:28.600Z,12.90
2023-05-20T15:18:02.070Z,11.63
